createdAt,value
2023-05-10T00:03:36.024Z,19.77
2023-05-10T00:08:37.621Z,18.40
2023-05-10T00:13:39.183Z,18.40
2023-05-10T00:18:41.284Z,18.13
2023-05-10T00:23:42.801Z,20.35
2023-05-10T00:28:44.299Z,18.83
2023-05-10T00:33:45.865Z,20.95
2023-05-10T00:38:47.418Z,20.17
2023-05-10T00:43:49.014Z,20.30
2023-05-10T00:48:50.763Z,20.58
2023-05-10T00:53:52.634Z,21.55
2023-05-10T00:58:54.452Z,21.55
2023-05-10T01:03:56.746Z,20.40
2023-05-10T01:15:15.767Z,18.58
2023-05-10T01:20:17.751Z,19.85
2023-05-10T01:25:51.485Z,20.35
2023-05-10T01:31:30.642Z,16.55
2023-05-10T01:37:13.459Z,17.15
2023-05-10T01:42:24.327Z,14.88
2023-05-10T01:47:43.318Z,14.13
2023-05-10T01:52:50.956Z,14.48
2023-05-10T01:58:03.811Z,11.15
2023-05-10T02:03:08.265Z,12.35
2023-05-10T02:08:10.572Z,11.27
2023-05-10T02:13:13.506Z,11.45
2023-05-10T02:18:16.042Z,13.25
2023-05-10T02:23:18.503Z,14.57
2023-05-10T02:28:21.809Z,13.93
2023-05-10T02:33:24.569Z,12.23
2023-05-10T02:38:27.843Z,14.95
2023-05-10T02:43:31.181Z,14.80
2023-05-10T02:48:32.764Z,15.15
2023-05-10T02:53:36.815Z,15.10
2023-05-10T02:58:38.370Z,15.38
2023-05-10T03:03:39.892Z,15.48
2023-05-10T03:08:41.519Z,17.27
2023-05-10T03:14:22.128Z,16.02
2023-05-10T03:19:36.788Z,18.08
2023-05-10T03:24:41.210Z,16.70
2023-05-10T03:29:45.413Z,16.13
2023-05-10T03:34:48.306Z,15.25
2023-05-10T03:39:49.953Z,15.30
2023-05-10T03:44:52.093Z,17.20
2023-05-10T03:49:53.733Z,16.13
2023-05-10T03:54:55.406Z,16.48
2023-05-10T03:59:58.529Z,14.77
2023-05-10T04:05:00.124Z,14.48
2023-05-10T04:10:01.794Z,16.10
2023-05-10T04:15:03.546Z,16.27
2023-05-10T04:20:05.601Z,16.00
2023-05-10T04:25:07.710Z,16.27
2023-05-10T04:30:09.594Z,15.70
2023-05-10T04:35:11.161Z,17.67
2023-05-10T04:40:13.009Z,20.33
2023-05-10T04:45:14.521Z,20.77
2023-05-10T04:50:16.251Z,20.98
2023-05-10T04:55:17.993Z,21.88
2023-05-10T05:00:19.933Z,23.90
2023-05-10T05:05:21.486Z,23.40
2023-05-10T05:10:23.048Z,21.73
2023-05-10T05:15:24.565Z,21.10
2023-05-10T05:20:26.119Z,21.63
2023-05-10T05:25:27.628Z,22.25
2023-05-10T05:30:29.113Z,20.05
2023-05-10T05:35:30.607Z,22.60
2023-05-10T05:40:32.106Z,20.83
2023-05-10T05:45:33.625Z,22.60
2023-05-10T05:50:35.149Z,18.13
2023-05-10T05:55:36.668Z,18.35
2023-05-10T06:00:38.180Z,17.52
2023-05-10T06:05:39.837Z,16.80
2023-05-10T06:10:41.376Z,11.77
2023-05-10T06:15:43.000Z,11.35
2023-05-10T06:20:44.525Z,9.00
2023-05-10T06:25:46.131Z,9.82
2023-05-10T06:30:47.732Z,8.50
2023-05-10T06:35:49.285Z,10.18
2023-05-10T06:40:50.862Z,9.05
2023-05-10T06:45:52.390Z,9.98
2023-05-10T06:50:54.042Z,9.27
2023-05-10T06:55:55.689Z,10.30
2023-05-10T07:01:03.312Z,9.77
2023-05-10T07:06:05.418Z,10.85
2023-05-10T07:11:07.628Z,9.93
2023-05-10T07:16:09.168Z,11.52
2023-05-10T07:21:10.842Z,10.10
2023-05-10T07:26:12.469Z,10.07
2023-05-10T07:31:14.006Z,10.18
2023-05-10T07:36:15.541Z,11.52
2023-05-10T07:41:17.074Z,10.77
2023-05-10T07:46:18.566Z,11.43
2023-05-10T07:51:20.062Z,10.77
2023-05-10T07:56:30.247Z,10.13
2023-05-10T08:01:32.935Z,11.95
2023-05-10T08:06:34.525Z,10.05
2023-05-10T08:11:36.176Z,9.82
2023-05-10T08:16:37.742Z,7.80
2023-05-10T08:21:39.270Z,6.65
2023-05-10T08:26:40.847Z,6.72
2023-05-10T08:31:42.697Z,6.85
2023-05-10T08:36:44.341Z,7.25
2023-05-10T08:41:48.879Z,5.68
2023-05-10T08:46:54.563Z,4.82
2023-05-10T08:51:58.437Z,3.77
2023-05-10T08:57:00.208Z,2.85
2023-05-10T09:02:03.016Z,1.77
2023-05-10T09:07:05.077Z,1.85
2023-05-10T09:12:06.927Z,1.80
2023-05-10T09:17:08.731Z,2.72
2023-05-10T09:22:10.923Z,2.85
2023-05-10T09:27:12.442Z,2.38
2023-05-10T09:32:15.589Z,2.63
2023-05-10T09:37:17.096Z,1.83
2023-05-10T09:42:19.286Z,2.00
2023-05-10T09:47:20.884Z,2.90
2023-05-10T09:52:22.385Z,3.58
2023-05-10T09:57:25.355Z,3.63
2023-05-10T10:02:29.781Z,4.45
2023-05-10T10:07:31.550Z,5.70
2023-05-10T10:12:33.518Z,7.05
2023-05-10T10:17:37.481Z,6.78
2023-05-10T10:22:38.992Z,5.90
2023-05-10T10:27:52.596Z,5.82
2023-05-10T10:33:26.832Z,6.88
2023-05-10T10:38:55.983Z,5.43
2023-05-10T10:44:31.354Z,5.82
2023-05-10T10:50:03.581Z,5.13
2023-05-10T10:55:21.645Z,5.88
2023-05-10T11:00:27.451Z,4.93
2023-05-10T11:05:51.334Z,4.75
2023-05-10T11:11:01.733Z,4.15
2023-05-10T11:16:23.142Z,4.13
2023-05-10T11:21:24.786Z,4.88
2023-05-10T11:26:31.047Z,3.95
2023-05-10T11:31:32.668Z,3.72
2023-05-10T11:36:36.690Z,2.35
2023-05-10T11:41:38.235Z,2.22
2023-05-10T11:46:39.819Z,1.98
2023-05-10T11:51:41.353Z,2.00
2023-05-10T11:56:42.869Z,2.88
2023-05-10T12:01:44.410Z,2.83
2023-05-10T12:06:46.102Z,2.00
2023-05-10T12:11:47.600Z,2.33
2023-05-10T12:16:49.323Z,1.48
2023-05-10T12:21:50.896Z,1.73
2023-05-10T12:26:52.464Z,1.65
2023-05-10T12:31:56.192Z,1.65
2023-05-10T12:36:58.117Z,1.65
2023-05-10T12:41:59.639Z,1.10
2023-05-10T12:47:01.135Z,1.20
2023-05-10T12:52:02.751Z,1.15
2023-05-10T12:57:04.310Z,0.88
2023-05-10T13:02:05.968Z,1.00
2023-05-10T13:07:07.981Z,0.80
2023-05-10T13:12:10.213Z,0.57
2023-05-10T13:17:11.967Z,0.82
2023-05-10T13:22:13.598Z,0.77
2023-05-10T13:27:15.076Z,0.70
2023-05-10T13:32:16.586Z,1.00
2023-05-10T13:37:18.233Z,0.93
2023-05-10T13:42:19.748Z,0.52
2023-05-10T13:47:21.231Z,0.52
2023-05-10T13:52:22.727Z,0.50
2023-05-10T13:57:24.211Z,0.80
2023-05-10T14:02:25.893Z,1.05
2023-05-10T14:07:27.558Z,1.10
2023-05-10T14:12:29.161Z,0.75
2023-05-10T14:17:30.684Z,0.70
2023-05-10T14:22:32.187Z,0.80
2023-05-10T14:27:33.711Z,1.00
2023-05-10T14:32:35.276Z,0.77
2023-05-10T14:37:36.780Z,0.60
2023-05-10T14:42:38.276Z,0.90
2023-05-10T14:47:43.111Z,0.98
2023-05-10T14:52:45.340Z,1.63
2023-05-10T14:57:46.850Z,1.63
2023-05-10T15:02:48.421Z,1.20
2023-05-10T15:07:50.356Z,1.20
2023-05-10T15:12:51.945Z,1.65
2023-05-10T15:17:53.513Z,1.67
2023-05-10T15:22:55.050Z,1.20
2023-05-10T15:27:56.557Z,2.05
2023-05-10T15:32:58.094Z,1.65
2023-05-10T15:37:59.610Z,2.65
2023-05-10T15:43:01.127Z,1.92
2023-05-10T15:48:02.753Z,2.08
2023-05-10T15:53:04.320Z,1.83
2023-05-10T15:58:05.948Z,1.92
2023-05-10T16:03:08.024Z,1.70
2023-05-10T16:08:09.592Z,1.20
2023-05-10T16:13:11.160Z,1.80
2023-05-10T16:18:12.700Z,2.20
2023-05-10T16:23:14.405Z,2.00
2023-05-10T16:28:15.909Z,2.35
2023-05-10T16:33:17.409Z,2.42
2023-05-10T16:38:18.923Z,2.92
2023-05-10T16:43:20.418Z,2.47
2023-05-10T16:48:22.040Z,2.60
2023-05-10T16:53:23.523Z,1.83
2023-05-10T16:58:25.380Z,2.20
2023-05-10T17:03:26.952Z,2.28
2023-05-10T17:08:28.521Z,2.05
2023-05-10T17:13:30.915Z,2.10
2023-05-10T17:18:32.481Z,1.98
2023-05-10T17:23:34.126Z,1.80
2023-05-10T17:28:35.681Z,2.30
2023-05-10T17:33:37.215Z,3.10
2023-05-10T17:38:38.726Z,7.80
2023-05-10T17:43:40.277Z,3.58
2023-05-10T17:48:41.774Z,3.47
2023-05-10T17:53:43.252Z,3.85
2023-05-10T17:58:44.838Z,3.60
2023-05-10T18:03:47.859Z,4.30
2023-05-10T18:08:49.542Z,4.38
2023-05-10T18:13:51.078Z,3.60
2023-05-10T18:18:52.679Z,3.58
2023-05-10T18:23:54.173Z,3.72
2023-05-10T18:28:55.702Z,3.63
2023-05-10T18:33:57.228Z,3.95
2023-05-10T18:38:59.100Z,3.50
2023-05-10T18:44:00.606Z,2.40
2023-05-10T18:49:02.730Z,1.75
2023-05-10T18:54:04.317Z,3.20
2023-05-10T18:59:06.035Z,4.47
2023-05-10T19:04:07.722Z,4.80
2023-05-10T19:09:09.482Z,4.25
2023-05-10T19:14:11.078Z,3.92
2023-05-10T19:19:14.271Z,4.65
2023-05-10T19:24:15.812Z,4.55
2023-05-10T19:29:17.458Z,4.72
2023-05-10T19:34:19.648Z,5.93
2023-05-10T19:39:21.149Z,6.15
2023-05-10T19:44:24.611Z,7.25
2023-05-10T19:49:26.300Z,7.22
2023-05-10T19:54:27.927Z,7.32
2023-05-10T19:59:29.464Z,10.02
2023-05-10T20:04:30.964Z,9.90
2023-05-10T20:09:32.556Z,12.90
2023-05-10T20:14:34.076Z,10.95
2023-05-10T20:19:35.574Z,13.32
2023-05-10T20:24:37.080Z,14.82
2023-05-10T20:29:38.655Z,13.93
2023-05-10T20:34:40.164Z,14.40
2023-05-10T20:39:41.660Z,14.13
2023-05-10T20:44:43.203Z,15.05
2023-05-10T20:49:44.769Z,15.05
2023-05-10T20:54:46.305Z,14.82
2023-05-10T20:59:49.611Z,13.27
2023-05-10T21:04:51.169Z,14.98
2023-05-10T21:09:52.866Z,17.05
2023-05-10T21:14:54.436Z,18.08
2023-05-10T21:19:55.931Z,15.82
2023-05-10T21:24:57.455Z,17.85
2023-05-10T21:29:59.008Z,18.02
2023-05-10T21:35:00.503Z,20.58
2023-05-10T21:40:02.480Z,20.83
2023-05-10T21:45:04.508Z,21.33
2023-05-10T21:50:06.685Z,21.15
2023-05-10T21:55:08.759Z,21.63
2023-05-10T22:00:11.158Z,21.27
2023-05-10T22:05:14.112Z,19.88
2023-05-10T22:10:15.835Z,20.60
2023-05-10T22:15:17.502Z,22.23
2023-05-10T22:20:19.378Z,20.02
2023-05-10T22:25:21.076Z,19.85
2023-05-10T22:30:22.630Z,21.45
2023-05-10T22:35:24.167Z,22.55
2023-05-10T22:40:25.746Z,23.02
2023-05-10T22:45:27.540Z,24.58
2023-05-10T22:50:30.047Z,11.15
2023-05-10T22:55:31.650Z,6.90
2023-05-10T23:00:33.690Z,6.38
2023-05-10T23:05:35.218Z,5.68
2023-05-10T23:10:36.844Z,2.25
2023-05-10T23:15:38.365Z,1.70
2023-05-10T23:20:42.962Z,1.40
2023-05-10T23:25:44.450Z,1.20
2023-05-10T23:30:45.983Z,1.10
2023-05-10T23:35:47.488Z,1.10
2023-05-10T23:40:49.971Z,1.13
2023-05-10T23:45:56.120Z,0.93
2023-05-10T23:50:57.712Z,1.13
2023-05-10T23:55:59.240Z,0.88
